createdAt,value
2022-07-29T00:00:19.070Z,57.74
2022-07-29T00:02:46.222Z,57.30
2022-07-29T00:05:19.369Z,57.88
2022-07-29T00:07:47.151Z,59.01
2022-07-29T00:10:14.186Z,60.14
2022-07-29T00:12:41.353Z,59.08
2022-07-29T00:15:09.091Z,58.11
2022-07-29T00:17:36.193Z,58.04
2022-07-29T00:20:04.481Z,57.87
2022-07-29T00:22:31.601Z,58.62
2022-07-29T00:25:01.214Z,58.84
2022-07-29T00:27:28.328Z,59.06
2022-07-29T00:29:55.514Z,58.61
2022-07-29T00:32:22.672Z,58.81
2022-07-29T00:35:09.179Z,58.65
2022-07-29T00:37:37.114Z,58.41
2022-07-29T00:40:04.754Z,58.53
2022-07-29T00:42:31.847Z,59.01
2022-07-29T00:44:58.802Z,58.82
2022-07-29T00:47:25.798Z,59.15
2022-07-29T00:49:53.470Z,58.63
2022-07-29T00:52:21.303Z,58.85
2022-07-29T00:54:48.381Z,59.14
2022-07-29T00:57:15.549Z,59.09
2022-07-29T00:59:42.813Z,58.94
2022-07-29T01:02:10.085Z,58.85
2022-07-29T01:04:37.314Z,59.00
2022-07-29T01:07:05.290Z,59.57
2022-07-29T01:09:43.095Z,59.61
2022-07-29T01:12:27.371Z,60.35
2022-07-29T01:14:56.340Z,60.33
2022-07-29T01:17:32.322Z,60.35
2022-07-29T01:20:18.716Z,60.71
2022-07-29T01:23:12.023Z,60.57
2022-07-29T01:26:20.471Z,60.94
2022-07-29T01:29:00.730Z,60.68
2022-07-29T01:31:59.181Z,60.44
2022-07-29T01:34:42.130Z,59.90
2022-07-29T01:37:33.382Z,60.89
2022-07-29T01:40:02.893Z,62.01
2022-07-29T01:42:43.101Z,62.02
2022-07-29T01:45:17.898Z,61.02
2022-07-29T01:48:00.321Z,61.10
2022-07-29T01:50:41.125Z,61.67
2022-07-29T01:53:11.440Z,61.11
2022-07-29T01:55:43.545Z,60.34
2022-07-29T01:58:13.223Z,60.10
2022-07-29T02:00:43.848Z,60.29
2022-07-29T02:03:13.961Z,60.98
2022-07-29T02:05:44.854Z,60.75
2022-07-29T02:08:14.244Z,61.23
2022-07-29T02:10:46.997Z,62.18
2022-07-29T02:13:21.543Z,61.97
2022-07-29T02:15:51.378Z,62.29
2022-07-29T02:18:25.002Z,61.88
2022-07-29T02:20:59.476Z,61.70
2022-07-29T02:23:50.337Z,61.92
2022-07-29T02:26:21.372Z,62.03
2022-07-29T02:28:55.347Z,62.70
2022-07-29T02:31:27.334Z,62.73
2022-07-29T02:33:55.690Z,62.53
2022-07-29T02:36:24.625Z,62.00
2022-07-29T02:38:54.339Z,62.35
2022-07-29T02:41:27.050Z,61.95
2022-07-29T02:43:57.978Z,63.20
2022-07-29T02:46:33.800Z,64.03
2022-07-29T02:49:16.658Z,63.49
2022-07-29T02:51:47.090Z,65.04
2022-07-29T02:54:24.785Z,66.06
2022-07-29T02:56:56.330Z,66.66
2022-07-29T02:59:27.854Z,66.95
2022-07-29T03:01:56.481Z,66.31
2022-07-29T03:04:26.742Z,65.93
2022-07-29T03:06:54.632Z,65.52
2022-07-29T03:09:24.012Z,64.95
2022-07-29T03:11:51.236Z,65.67
2022-07-29T03:14:25.366Z,66.17
2022-07-29T03:16:53.298Z,65.21
2022-07-29T03:19:21.420Z,65.94
2022-07-29T03:21:49.122Z,65.73
2022-07-29T03:24:30.765Z,64.73
2022-07-29T03:26:58.752Z,63.75
2022-07-29T03:29:33.021Z,63.15
2022-07-29T03:32:07.384Z,63.55
2022-07-29T03:34:39.067Z,63.30
2022-07-29T03:37:07.304Z,63.07
2022-07-29T03:39:39.459Z,63.24
2022-07-29T03:42:09.236Z,63.00
2022-07-29T03:44:39.511Z,62.46
2022-07-29T03:47:09.027Z,62.13
2022-07-29T03:49:41.782Z,62.71
2022-07-29T03:52:09.843Z,62.16
2022-07-29T03:54:37.380Z,62.63
2022-07-29T03:57:07.020Z,61.90
2022-07-29T03:59:34.884Z,61.85
2022-07-29T04:02:04.299Z,61.63
2022-07-29T04:04:33.202Z,61.55
2022-07-29T04:07:01.549Z,61.09
2022-07-29T04:09:28.726Z,61.14
2022-07-29T04:12:03.209Z,60.97
2022-07-29T04:14:32.920Z,60.72
2022-07-29T04:17:06.267Z,60.37
2022-07-29T04:19:33.518Z,60.14
2022-07-29T04:22:01.933Z,59.92
2022-07-29T04:24:29.290Z,60.05
2022-07-29T04:26:58.464Z,59.85
2022-07-29T04:29:25.662Z,59.78
2022-07-29T04:31:52.802Z,59.37
2022-07-29T04:34:28.681Z,58.93
2022-07-29T04:36:56.378Z,58.88
2022-07-29T04:39:29.569Z,58.50
2022-07-29T04:41:57.561Z,58.55
2022-07-29T04:44:28.794Z,58.42
2022-07-29T04:46:57.672Z,58.55
2022-07-29T04:49:25.443Z,58.60
2022-07-29T04:51:52.511Z,58.18
2022-07-29T04:54:19.881Z,58.43
2022-07-29T04:56:47.382Z,57.86
2022-07-29T04:59:18.017Z,58.08
2022-07-29T05:01:45.174Z,57.85
2022-07-29T05:04:12.613Z,57.98
2022-07-29T05:06:40.253Z,57.56
2022-07-29T05:09:08.800Z,57.29
2022-07-29T05:11:35.986Z,57.73
2022-07-29T05:14:03.161Z,57.16
2022-07-29T05:16:30.510Z,57.00
2022-07-29T05:18:58.015Z,56.39
2022-07-29T05:21:25.178Z,56.58
2022-07-29T05:23:52.372Z,56.40
2022-07-29T05:26:23.977Z,56.38
2022-07-29T05:28:51.533Z,56.62
2022-07-29T05:31:18.729Z,55.91
2022-07-29T05:33:46.130Z,56.04
2022-07-29T05:36:13.346Z,56.09
2022-07-29T05:38:45.924Z,55.47
2022-07-29T05:41:12.898Z,55.39
2022-07-29T05:43:39.905Z,55.32
2022-07-29T05:46:07.012Z,55.49
2022-07-29T05:48:34.210Z,55.84
2022-07-29T05:51:01.592Z,55.96
2022-07-29T05:53:29.918Z,54.79
2022-07-29T05:56:06.748Z,55.01
2022-07-29T05:58:34.214Z,55.31
2022-07-29T06:01:01.567Z,55.05
2022-07-29T06:03:32.620Z,55.54
2022-07-29T06:05:59.625Z,54.88
2022-07-29T06:08:26.790Z,55.33
2022-07-29T06:10:54.081Z,56.03
2022-07-29T06:13:21.136Z,55.79
2022-07-29T06:15:53.331Z,55.00
2022-07-29T06:18:21.717Z,55.49
2022-07-29T06:20:49.085Z,56.20
2022-07-29T06:23:20.617Z,56.45
2022-07-29T06:25:47.860Z,56.24
2022-07-29T06:28:19.006Z,57.21
2022-07-29T06:30:47.454Z,56.79
2022-07-29T06:33:19.647Z,56.81
2022-07-29T06:35:53.302Z,57.02
2022-07-29T06:38:33.844Z,57.34
2022-07-29T06:41:01.959Z,57.92
2022-07-29T06:43:50.162Z,57.91
2022-07-29T06:46:24.462Z,58.32
2022-07-29T06:48:53.221Z,58.95
2022-07-29T06:51:22.443Z,59.34
2022-07-29T06:53:59.978Z,59.92
2022-07-29T06:56:32.447Z,60.43
2022-07-29T06:59:15.771Z,60.92
2022-07-29T07:01:50.839Z,60.48
2022-07-29T07:04:25.447Z,60.70
2022-07-29T07:06:56.495Z,60.47
2022-07-29T07:09:23.672Z,60.25
2022-07-29T07:11:50.884Z,60.02
2022-07-29T07:14:18.296Z,59.52
2022-07-29T07:16:52.713Z,59.39
2022-07-29T07:19:25.457Z,59.16
2022-07-29T07:21:53.799Z,59.67
2022-07-29T07:24:22.772Z,59.87
2022-07-29T07:26:55.351Z,57.71
2022-07-29T07:29:26.278Z,57.86
2022-07-29T07:31:58.840Z,57.51
2022-07-29T07:34:28.271Z,58.04
2022-07-29T07:36:57.097Z,58.94
2022-07-29T07:39:24.391Z,59.86
2022-07-29T07:41:51.513Z,60.22
2022-07-29T07:44:23.689Z,60.01
2022-07-29T07:46:51.057Z,60.40
2022-07-29T07:49:18.208Z,62.70
2022-07-29T07:51:50.625Z,63.30
2022-07-29T07:54:21.396Z,64.26
2022-07-29T07:56:53.195Z,64.65
2022-07-29T07:59:24.582Z,65.09
2022-07-29T08:01:56.029Z,64.49
2022-07-29T08:04:28.117Z,64.43
2022-07-29T08:06:57.666Z,65.27
2022-07-29T08:09:29.619Z,65.93
2022-07-29T08:12:00.230Z,66.68
2022-07-29T08:14:27.434Z,67.54
2022-07-29T08:16:54.768Z,66.94
2022-07-29T08:19:21.999Z,66.75
2022-07-29T08:21:49.076Z,66.07
2022-07-29T08:24:34.669Z,66.53
2022-07-29T08:27:01.817Z,66.88
2022-07-29T08:29:29.269Z,66.66
2022-07-29T08:31:56.969Z,67.29
2022-07-29T08:34:27.028Z,67.62
2022-07-29T08:36:56.615Z,67.25
2022-07-29T08:39:31.360Z,67.54
2022-07-29T08:41:58.838Z,66.80
2022-07-29T08:44:30.750Z,66.48
2022-07-29T08:46:58.501Z,66.02
2022-07-29T08:49:36.058Z,65.86
2022-07-29T08:52:03.593Z,65.47
2022-07-29T08:54:31.677Z,64.88
2022-07-29T08:57:00.545Z,64.46
2022-07-29T08:59:28.920Z,63.74
2022-07-29T09:02:01.122Z,63.08
2022-07-29T09:04:35.217Z,63.30
2022-07-29T09:07:05.233Z,63.36
2022-07-29T09:09:34.602Z,62.93
2022-07-29T09:12:02.082Z,62.07
2022-07-29T09:14:29.138Z,61.91
2022-07-29T09:17:03.800Z,61.91
2022-07-29T09:19:32.858Z,61.57
2022-07-29T09:22:03.745Z,60.63
2022-07-29T09:24:56.218Z,60.06
2022-07-29T09:27:27.472Z,59.50
2022-07-29T09:30:11.559Z,59.47
2022-07-29T09:33:00.945Z,59.12
2022-07-29T09:35:29.045Z,58.99
2022-07-29T09:37:56.487Z,58.41
2022-07-29T09:40:26.272Z,58.37
2022-07-29T09:42:57.789Z,58.14
2022-07-29T09:45:29.797Z,58.19
2022-07-29T09:48:01.167Z,58.04
2022-07-29T09:50:42.016Z,58.16
2022-07-29T09:53:12.019Z,56.93
2022-07-29T09:55:52.008Z,56.88
2022-07-29T09:58:21.686Z,57.13
2022-07-29T10:00:50.545Z,57.42
2022-07-29T10:03:18.361Z,57.12
2022-07-29T10:05:47.204Z,57.22
2022-07-29T10:08:14.429Z,57.15
2022-07-29T10:10:43.839Z,57.78
2022-07-29T10:13:17.131Z,57.08
2022-07-29T10:15:46.661Z,56.94
2022-07-29T10:18:18.068Z,56.88
2022-07-29T10:20:46.005Z,55.42
2022-07-29T10:23:13.568Z,55.05
2022-07-29T10:25:45.913Z,55.17
2022-07-29T10:28:16.513Z,54.47
2022-07-29T10:30:46.188Z,55.43
2022-07-29T10:33:16.674Z,54.92
2022-07-29T10:36:02.937Z,54.00
2022-07-29T10:38:30.172Z,54.47
2022-07-29T10:41:32.297Z,54.09
2022-07-29T10:44:19.309Z,53.38
2022-07-29T10:46:51.423Z,52.64
2022-07-29T10:49:20.234Z,51.37
2022-07-29T10:51:51.394Z,51.38
2022-07-29T10:54:19.573Z,52.38
2022-07-29T10:56:47.761Z,52.69
2022-07-29T10:59:21.554Z,52.67
2022-07-29T11:01:53.521Z,53.03
2022-07-29T11:04:47.086Z,51.88
2022-07-29T11:07:17.139Z,52.10
2022-07-29T11:09:46.370Z,51.71
2022-07-29T11:12:39.260Z,51.98
2022-07-29T11:15:17.950Z,51.25
2022-07-29T11:18:01.483Z,51.03
2022-07-29T11:20:49.897Z,51.57
2022-07-29T11:23:33.945Z,50.96
2022-07-29T11:26:10.939Z,49.77
2022-07-29T11:29:01.843Z,47.67
2022-07-29T11:31:45.670Z,48.16
2022-07-29T11:34:30.071Z,49.24
2022-07-29T11:37:13.565Z,49.99
2022-07-29T11:39:41.611Z,48.39
2022-07-29T11:42:28.367Z,49.29
2022-07-29T11:45:08.900Z,46.38
2022-07-29T11:47:56.045Z,46.04
2022-07-29T11:50:37.658Z,46.29
2022-07-29T11:53:17.465Z,46.30
2022-07-29T11:56:04.396Z,46.64
2022-07-29T11:58:31.820Z,43.96
2022-07-29T12:01:18.424Z,45.67
2022-07-29T12:03:48.046Z,44.66
2022-07-29T12:06:34.939Z,43.95
2022-07-29T12:09:11.220Z,45.49
2022-07-29T12:11:41.487Z,47.19
2022-07-29T12:14:31.824Z,46.61
2022-07-29T12:17:32.261Z,47.18
2022-07-29T12:20:07.804Z,45.91
2022-07-29T12:22:38.897Z,46.30
2022-07-29T12:25:32.519Z,46.07
2022-07-29T12:28:07.459Z,45.03
2022-07-29T12:30:49.496Z,44.89
2022-07-29T12:33:25.243Z,45.37
2022-07-29T12:36:06.730Z,46.12
2022-07-29T12:38:41.125Z,44.99
2022-07-29T12:41:08.509Z,44.97
2022-07-29T12:43:54.987Z,44.00
2022-07-29T12:46:22.619Z,43.63
2022-07-29T12:48:55.717Z,43.00
2022-07-29T12:51:34.487Z,42.96
2022-07-29T12:54:20.145Z,42.03
2022-07-29T12:56:47.525Z,42.17
2022-07-29T12:59:22.793Z,43.55
2022-07-29T13:01:53.399Z,43.60
2022-07-29T13:04:30.454Z,42.11
2022-07-29T13:07:08.018Z,42.44
2022-07-29T13:09:48.708Z,41.47
2022-07-29T13:12:16.202Z,41.30
2022-07-29T13:14:45.826Z,41.26
2022-07-29T13:17:17.947Z,41.66
2022-07-29T13:19:53.867Z,40.97
2022-07-29T13:22:22.001Z,41.23
2022-07-29T13:25:02.401Z,40.98
2022-07-29T13:27:35.301Z,40.78
2022-07-29T13:30:07.579Z,40.78
2022-07-29T13:32:38.559Z,40.47
2022-07-29T13:35:08.183Z,40.18
2022-07-29T13:37:38.990Z,39.97
2022-07-29T13:40:24.955Z,41.22
2022-07-29T13:42:52.277Z,40.95
2022-07-29T13:45:19.896Z,41.30
2022-07-29T13:47:49.804Z,41.69
2022-07-29T13:50:35.148Z,42.18
2022-07-29T13:53:02.405Z,42.66
2022-07-29T13:55:34.577Z,42.83
2022-07-29T13:58:01.664Z,42.98
2022-07-29T14:00:32.103Z,42.75
2022-07-29T14:03:02.005Z,42.44
2022-07-29T14:05:40.902Z,43.39
2022-07-29T14:08:08.189Z,43.31
2022-07-29T14:10:35.910Z,42.36
2022-07-29T14:13:05.906Z,41.99
2022-07-29T14:16:07.908Z,41.29
2022-07-29T14:18:35.110Z,40.59
2022-07-29T14:21:20.713Z,40.95
2022-07-29T14:23:48.592Z,41.22
2022-07-29T14:26:28.090Z,40.62
2022-07-29T14:28:55.638Z,40.98
2022-07-29T14:31:22.999Z,41.77
2022-07-29T14:34:02.832Z,42.55
2022-07-29T14:36:32.829Z,43.45
2022-07-29T14:39:00.089Z,42.78
2022-07-29T14:41:29.099Z,42.15
2022-07-29T14:43:56.424Z,42.13
2022-07-29T14:46:23.962Z,42.26
2022-07-29T14:48:51.153Z,41.53
2022-07-29T14:51:18.446Z,42.25
2022-07-29T14:53:45.665Z,42.97
2022-07-29T14:56:35.475Z,42.46
2022-07-29T14:59:07.085Z,42.58
2022-07-29T15:01:37.574Z,42.01
2022-07-29T15:04:07.174Z,41.45
2022-07-29T15:06:38.803Z,41.17
2022-07-29T15:09:11.115Z,40.73
2022-07-29T15:11:42.108Z,39.81
2022-07-29T15:14:09.490Z,39.26
2022-07-29T15:16:38.242Z,38.79
2022-07-29T15:19:15.769Z,37.30
2022-07-29T15:21:48.381Z,36.78
2022-07-29T15:24:18.018Z,36.11
2022-07-29T15:26:45.636Z,36.46
2022-07-29T15:29:18.330Z,36.47
2022-07-29T15:31:45.585Z,36.02
2022-07-29T15:34:13.021Z,35.62
2022-07-29T15:36:56.297Z,35.80
2022-07-29T15:39:23.943Z,35.25
2022-07-29T15:41:55.668Z,35.42
2022-07-29T15:44:27.383Z,34.38
2022-07-29T15:47:03.601Z,34.25
2022-07-29T15:49:46.633Z,35.89
2022-07-29T15:52:26.120Z,35.11
2022-07-29T15:54:57.675Z,35.10
2022-07-29T15:57:25.762Z,36.10
2022-07-29T15:59:53.326Z,37.36
2022-07-29T16:02:22.966Z,37.05
2022-07-29T16:04:54.075Z,37.01
2022-07-29T16:07:21.386Z,37.74
2022-07-29T16:09:53.251Z,38.47
2022-07-29T16:12:21.061Z,38.01
2022-07-29T16:14:49.380Z,38.25
2022-07-29T16:17:16.973Z,38.04
2022-07-29T16:19:45.347Z,37.57
2022-07-29T16:22:13.213Z,37.25
2022-07-29T16:24:40.489Z,38.01
2022-07-29T16:27:08.181Z,38.84
2022-07-29T16:29:38.101Z,39.38
2022-07-29T16:32:06.591Z,39.11
2022-07-29T16:34:36.034Z,39.66
2022-07-29T16:37:04.387Z,39.09
2022-07-29T16:39:32.689Z,38.90
2022-07-29T16:42:07.590Z,38.11
2022-07-29T16:44:35.373Z,37.05
2022-07-29T16:47:03.604Z,37.30
2022-07-29T16:49:34.961Z,37.57
2022-07-29T16:52:02.321Z,37.46
2022-07-29T16:54:29.586Z,36.75
2022-07-29T16:56:57.355Z,37.19
2022-07-29T16:59:24.899Z,37.37
2022-07-29T17:01:52.373Z,37.73
2022-07-29T17:04:19.777Z,37.37
2022-07-29T17:06:49.473Z,37.31
2022-07-29T17:09:16.677Z,37.93
2022-07-29T17:11:55.072Z,38.15
2022-07-29T17:14:28.053Z,38.26
2022-07-29T17:17:01.167Z,38.86
2022-07-29T17:19:30.377Z,38.70
2022-07-29T17:22:08.473Z,39.41
2022-07-29T17:24:38.825Z,38.95
2022-07-29T17:27:06.696Z,39.43
2022-07-29T17:29:34.944Z,40.08
2022-07-29T17:32:12.736Z,39.92
2022-07-29T17:34:44.023Z,39.88
2022-07-29T17:37:12.281Z,40.09
2022-07-29T17:39:44.785Z,40.07
2022-07-29T17:42:17.352Z,40.53
2022-07-29T17:44:44.510Z,41.65
2022-07-29T17:47:15.944Z,41.79
2022-07-29T17:49:44.906Z,42.13
2022-07-29T17:52:12.332Z,42.37
2022-07-29T17:54:39.428Z,43.05
2022-07-29T17:57:06.825Z,42.65
2022-07-29T17:59:34.553Z,42.83
2022-07-29T18:02:03.140Z,42.71
2022-07-29T18:04:31.369Z,42.90
2022-07-29T18:06:58.726Z,42.72
2022-07-29T18:09:26.356Z,43.74
2022-07-29T18:11:53.726Z,44.33
2022-07-29T18:14:21.052Z,44.31
2022-07-29T18:16:48.520Z,44.95
2022-07-29T18:19:16.173Z,45.66
2022-07-29T18:21:54.510Z,45.73
2022-07-29T18:24:25.444Z,46.12
2022-07-29T18:26:58.477Z,46.30
2022-07-29T18:29:28.665Z,46.34
2022-07-29T18:31:56.269Z,46.34
2022-07-29T18:34:23.609Z,46.47
2022-07-29T18:36:51.149Z,46.76
2022-07-29T18:39:20.649Z,47.11
2022-07-29T18:41:51.217Z,47.20
2022-07-29T18:44:27.265Z,47.29
2022-07-29T18:46:55.587Z,47.32
2022-07-29T18:49:22.903Z,47.56
2022-07-29T18:51:50.817Z,47.66
2022-07-29T18:54:18.437Z,47.79
2022-07-29T18:56:52.993Z,47.29
2022-07-29T18:59:23.076Z,47.67
2022-07-29T19:01:58.026Z,47.23
2022-07-29T19:04:25.614Z,47.52
2022-07-29T19:06:55.190Z,47.51
2022-07-29T19:09:27.649Z,47.63
2022-07-29T19:11:59.655Z,47.58
2022-07-29T19:14:29.168Z,47.77
2022-07-29T19:16:57.842Z,47.52
2022-07-29T19:19:25.372Z,47.50
2022-07-29T19:21:52.763Z,48.03
2022-07-29T19:24:19.926Z,47.95
2022-07-29T19:26:47.219Z,47.84
2022-07-29T19:29:23.467Z,47.85
2022-07-29T19:31:53.984Z,48.11
2022-07-29T19:34:27.782Z,48.39
2022-07-29T19:37:04.333Z,48.75
2022-07-29T19:39:35.202Z,48.63
2022-07-29T19:42:03.607Z,48.79
2022-07-29T19:44:38.148Z,49.26
2022-07-29T19:47:05.989Z,49.19
2022-07-29T19:49:37.006Z,49.34
2022-07-29T19:52:04.591Z,49.67
2022-07-29T19:54:31.912Z,50.28
2022-07-29T19:56:59.741Z,50.45
2022-07-29T19:59:28.196Z,50.63
2022-07-29T20:01:57.281Z,50.83
2022-07-29T20:04:27.346Z,51.98
2022-07-29T20:06:56.983Z,52.14
2022-07-29T20:09:24.214Z,51.47
2022-07-29T20:11:51.428Z,51.53
2022-07-29T20:14:20.041Z,51.73
2022-07-29T20:16:47.149Z,52.07
2022-07-29T20:19:14.395Z,52.49
2022-07-29T20:21:41.709Z,52.84
2022-07-29T20:24:10.242Z,53.06
2022-07-29T20:26:38.034Z,53.47
2022-07-29T20:29:05.324Z,53.88
2022-07-29T20:31:32.879Z,54.13
2022-07-29T20:34:01.392Z,54.38
2022-07-29T20:36:28.621Z,54.15
2022-07-29T20:38:56.330Z,55.93
2022-07-29T20:41:23.335Z,57.67
2022-07-29T20:43:50.619Z,56.29
2022-07-29T20:46:18.569Z,54.71
2022-07-29T20:48:53.443Z,54.83
2022-07-29T20:51:22.225Z,55.24
2022-07-29T20:53:49.481Z,54.84
2022-07-29T20:56:19.587Z,54.86
2022-07-29T20:58:46.679Z,54.60
2022-07-29T21:01:13.830Z,56.44
2022-07-29T21:03:41.216Z,57.29
2022-07-29T21:06:09.051Z,57.03
2022-07-29T21:08:36.557Z,57.78
2022-07-29T21:11:04.741Z,57.45
2022-07-29T21:13:37.779Z,58.47
2022-07-29T21:16:12.794Z,59.18
2022-07-29T21:18:46.221Z,60.34
2022-07-29T21:21:14.870Z,61.12
2022-07-29T21:23:45.830Z,61.26
2022-07-29T21:26:13.259Z,60.74
2022-07-29T21:28:40.576Z,59.78
2022-07-29T21:31:12.833Z,59.88
2022-07-29T21:33:43.001Z,60.66
2022-07-29T21:36:44.019Z,60.41
2022-07-29T21:38:58.290Z,61.34
2022-07-29T21:41:25.482Z,61.55
2022-07-29T21:44:00.242Z,60.36
2022-07-29T21:46:28.601Z,59.94
2022-07-29T21:48:55.927Z,60.47
2022-07-29T21:51:23.071Z,60.81
2022-07-29T21:53:50.470Z,61.39
2022-07-29T21:56:27.614Z,61.40
2022-07-29T21:58:57.351Z,60.87
2022-07-29T22:01:24.494Z,59.42
2022-07-29T22:03:52.939Z,59.49
2022-07-29T22:06:20.835Z,59.06
2022-07-29T22:08:47.994Z,59.69
2022-07-29T22:11:16.432Z,59.85
2022-07-29T22:13:43.408Z,60.54
2022-07-29T22:16:14.667Z,60.08
2022-07-29T22:18:44.987Z,60.21
2022-07-29T22:21:15.232Z,60.44
2022-07-29T22:23:42.446Z,60.73
2022-07-29T22:26:09.561Z,60.92
2022-07-29T22:28:36.874Z,60.57
2022-07-29T22:33:32.361Z,59.81
2022-07-29T22:35:59.613Z,60.76
2022-07-29T22:38:30.556Z,60.97
2022-07-29T22:40:58.802Z,60.31
2022-07-29T22:43:28.602Z,61.17
2022-07-29T22:45:55.889Z,61.42
2022-07-29T22:48:28.601Z,61.43
2022-07-29T22:50:55.580Z,61.51
2022-07-29T22:53:22.738Z,60.90
2022-07-29T22:55:49.901Z,61.28
2022-07-29T22:58:17.151Z,61.54
2022-07-29T23:00:44.416Z,61.91
2022-07-29T23:03:11.450Z,61.56
2022-07-29T23:05:38.604Z,61.81
2022-07-29T23:08:08.866Z,61.71
2022-07-29T23:10:35.882Z,61.65
2022-07-29T23:13:02.928Z,61.58
2022-07-29T23:15:29.950Z,62.41
2022-07-29T23:17:57.026Z,62.64
2022-07-29T23:20:24.308Z,64.42
2022-07-29T23:22:51.623Z,65.17
2022-07-29T23:25:18.878Z,65.87
2022-07-29T23:27:45.872Z,65.93
2022-07-29T23:30:13.165Z,65.98
2022-07-29T23:32:40.185Z,67.17
2022-07-29T23:35:12.812Z,65.27
2022-07-29T23:37:39.923Z,65.12
2022-07-29T23:40:12.160Z,64.53
2022-07-29T23:42:42.143Z,64.91
2022-07-29T23:45:10.233Z,64.74
2022-07-29T23:47:40.204Z,65.24
2022-07-29T23:50:09.648Z,65.37
2022-07-29T23:52:37.098Z,66.29
2022-07-29T23:55:38.146Z,68.32
2022-07-29T23:57:52.261Z,68.48
